createdAt,value
2019-02-21T00:02:56.825Z,9.53
2019-02-21T00:08:01.502Z,9.60
2019-02-21T00:13:06.272Z,12.17
2019-02-21T00:18:11.998Z,11.07
2019-02-21T00:23:16.700Z,12.60
2019-02-21T00:28:21.657Z,10.93
2019-02-21T00:33:26.342Z,13.87
2019-02-21T00:38:31.120Z,14.77
2019-02-21T00:43:35.810Z,14.73
2019-02-21T00:48:40.498Z,11.63
2019-02-21T00:53:46.149Z,13.13
2019-02-21T00:58:50.843Z,14.47
2019-02-21T01:03:55.566Z,22.30
2019-02-21T01:09:00.315Z,13.53
2019-02-21T01:14:05.420Z,12.53
2019-02-21T01:19:10.179Z,16.43
2019-02-21T01:24:14.889Z,15.40
2019-02-21T21:06:01.909Z,48.33
2019-02-21T21:11:06.698Z,53.83
2019-02-21T21:16:11.422Z,49.45
2019-02-21T21:21:16.155Z,55.53
2019-02-21T21:26:20.857Z,52.35
2019-02-21T21:31:25.594Z,49.27
2019-02-21T21:36:30.323Z,57.20
2019-02-21T21:41:35.184Z,48.70
2019-02-21T21:46:40.001Z,51.00
2019-02-21T21:51:45.878Z,52.27
2019-02-21T21:56:50.752Z,54.80
2019-02-21T22:05:07.212Z,56.40
2019-02-21T22:10:12.499Z,54.57
2019-02-21T22:15:17.647Z,55.83
2019-02-21T22:20:22.435Z,59.07
2019-02-21T22:25:27.222Z,55.27
2019-02-21T22:30:32.000Z,55.73
2019-02-21T22:35:37.949Z,52.10
2019-02-21T22:40:42.724Z,47.37
2019-02-21T22:45:47.636Z,48.73
2019-02-21T22:50:52.321Z,47.80
2019-02-21T22:55:57.015Z,43.30
2019-02-21T23:01:26.365Z,38.93
2019-02-21T23:06:49.091Z,39.87
2019-02-21T23:11:53.932Z,42.43
2019-02-21T23:16:58.759Z,37.90
2019-02-21T23:22:04.421Z,35.87
2019-02-21T23:27:09.573Z,35.88
2019-02-21T23:32:14.277Z,31.47
2019-02-21T23:37:19.032Z,32.67
2019-02-21T23:42:23.752Z,28.67
2019-02-21T23:47:28.589Z,29.50
2019-02-21T23:52:33.295Z,27.10
2019-02-21T23:57:37.998Z,27.83
